createdAt,value
2023-04-03T00:01:10.542Z,5.41
2023-04-03T00:03:38.394Z,5.40
2023-04-03T00:06:07.851Z,5.29
2023-04-03T00:08:35.411Z,5.20
2023-04-03T00:11:03.324Z,5.06
2023-04-03T00:13:30.647Z,5.10
2023-04-03T00:15:57.834Z,5.16
2023-04-03T00:18:25.627Z,5.14
2023-04-03T00:20:52.746Z,5.16
2023-04-03T00:23:19.999Z,5.19
2023-04-03T00:25:47.459Z,5.24
2023-04-03T00:28:14.593Z,5.30
2023-04-03T00:30:42.058Z,5.27
2023-04-03T00:33:13.485Z,5.33
2023-04-03T00:35:41.574Z,5.33
2023-04-03T00:38:09.318Z,5.31
2023-04-03T00:40:39.675Z,5.30
2023-04-03T00:43:13.856Z,5.31
2023-04-03T00:45:47.729Z,5.30
2023-04-03T00:48:34.594Z,5.24
2023-04-03T00:51:05.414Z,5.31
2023-04-03T00:53:40.265Z,5.27
2023-04-03T00:56:10.504Z,5.27
2023-04-03T00:58:52.249Z,5.30
2023-04-03T01:01:23.252Z,5.30
2023-04-03T01:03:51.212Z,5.26
2023-04-03T01:06:26.280Z,5.22
2023-04-03T01:08:54.488Z,5.20
2023-04-03T01:11:22.438Z,5.18
2023-04-03T01:13:50.519Z,5.19
2023-04-03T01:16:18.427Z,5.18
2023-04-03T01:18:46.912Z,5.19
2023-04-03T01:21:52.466Z,5.20
2023-04-03T01:24:30.503Z,5.12
2023-04-03T01:26:57.973Z,5.16
2023-04-03T01:29:25.777Z,5.11
2023-04-03T01:31:58.742Z,5.07
2023-04-03T01:34:27.015Z,5.06
2023-04-03T01:36:54.825Z,5.05
2023-04-03T01:39:22.748Z,5.08
2023-04-03T01:41:51.163Z,5.05
2023-04-03T01:44:18.745Z,5.02
2023-04-03T01:46:45.980Z,5.05
2023-04-03T01:49:13.369Z,5.07
2023-04-03T01:51:40.585Z,5.03
2023-04-03T01:54:07.802Z,4.96
2023-04-03T01:56:35.276Z,5.00
2023-04-03T01:59:02.486Z,4.99
2023-04-03T02:01:29.975Z,4.96
2023-04-03T02:03:57.439Z,4.92
2023-04-03T02:06:24.765Z,4.96
2023-04-03T02:08:51.922Z,4.97
2023-04-03T02:11:19.331Z,4.95
2023-04-03T02:13:46.490Z,4.87
2023-04-03T02:16:14.614Z,4.90
2023-04-03T02:18:42.456Z,4.94
2023-04-03T02:21:09.666Z,4.93
2023-04-03T02:23:38.101Z,4.93
2023-04-03T02:26:08.772Z,4.88
2023-04-03T02:28:36.550Z,4.78
2023-04-03T02:31:04.567Z,4.84
2023-04-03T02:33:32.301Z,4.83
2023-04-03T02:36:00.404Z,4.79
2023-04-03T02:38:27.979Z,4.72
2023-04-03T02:41:01.990Z,4.66
2023-04-03T02:43:29.551Z,4.68
2023-04-03T02:45:57.251Z,4.75
2023-04-03T02:48:24.873Z,4.65
2023-04-03T02:50:52.275Z,4.58
2023-04-03T02:53:20.425Z,4.58
2023-04-03T02:55:49.062Z,4.58
2023-04-03T02:58:16.328Z,4.49
2023-04-03T03:00:46.315Z,4.52
2023-04-03T03:03:15.191Z,4.47
2023-04-03T03:05:42.475Z,4.42
2023-04-03T03:08:10.040Z,4.43
2023-04-03T03:10:37.777Z,4.31
2023-04-03T03:13:05.571Z,4.30
2023-04-03T03:15:33.096Z,4.25
2023-04-03T03:18:01.659Z,4.27
2023-04-03T03:20:29.074Z,4.26
2023-04-03T03:22:56.565Z,4.25
2023-04-03T03:25:23.914Z,4.20
2023-04-03T03:27:51.187Z,4.24
2023-04-03T03:30:18.761Z,4.22
2023-04-03T03:32:46.528Z,4.15
2023-04-03T03:35:13.859Z,4.19
2023-04-03T03:37:41.431Z,4.19
2023-04-03T03:40:09.706Z,4.16
2023-04-03T03:42:38.130Z,4.16
2023-04-03T03:45:06.704Z,4.08
2023-04-03T03:47:34.330Z,4.06
2023-04-03T03:50:02.139Z,4.09
2023-04-03T03:52:31.317Z,4.07
2023-04-03T03:54:58.633Z,3.92
2023-04-03T03:57:28.005Z,3.97
2023-04-03T03:59:56.020Z,3.90
2023-04-03T04:02:24.277Z,3.86
2023-04-03T04:04:53.521Z,3.79
2023-04-03T04:07:21.099Z,3.77
2023-04-03T04:09:48.484Z,3.75
2023-04-03T04:12:16.973Z,3.75
2023-04-03T04:14:47.619Z,3.81
2023-04-03T04:17:16.259Z,3.73
2023-04-03T04:19:43.775Z,3.73
2023-04-03T04:22:11.141Z,3.74
2023-04-03T04:24:39.685Z,3.74
2023-04-03T04:27:08.605Z,3.76
2023-04-03T04:29:38.275Z,3.77
2023-04-03T04:32:06.681Z,3.70
2023-04-03T04:34:34.875Z,3.71
2023-04-03T04:37:02.613Z,3.66
2023-04-03T04:39:30.567Z,3.65
2023-04-03T04:41:58.268Z,3.64
2023-04-03T04:44:26.390Z,3.58
2023-04-03T04:46:54.096Z,3.62
2023-04-03T04:49:22.117Z,3.63
2023-04-03T04:51:52.324Z,3.67
2023-04-03T04:54:20.532Z,3.60
2023-04-03T04:56:49.153Z,3.63
2023-04-03T04:59:16.500Z,3.49
2023-04-03T05:01:43.984Z,3.54
2023-04-03T05:04:13.939Z,3.49
2023-04-03T05:06:41.468Z,3.47
2023-04-03T05:09:10.949Z,3.52
2023-04-03T05:11:38.958Z,3.54
2023-04-03T05:14:09.215Z,3.63
2023-04-03T05:16:37.336Z,3.70
2023-04-03T05:19:05.498Z,3.68
2023-04-03T05:21:33.614Z,3.68
2023-04-03T05:24:03.986Z,3.65
2023-04-03T05:26:32.982Z,3.90
2023-04-03T05:29:01.436Z,4.00
2023-04-03T05:31:30.778Z,4.06
2023-04-03T05:33:59.408Z,4.23
2023-04-03T05:36:27.357Z,4.00
2023-04-03T05:38:57.381Z,4.14
2023-04-03T05:41:26.151Z,4.36
2023-04-03T05:43:53.595Z,4.30
2023-04-03T05:46:22.216Z,4.19
2023-04-03T05:48:51.991Z,4.24
2023-04-03T05:51:24.968Z,4.11
2023-04-03T05:54:26.064Z,4.20
2023-04-03T05:56:55.774Z,4.11
2023-04-03T05:59:23.692Z,4.11
2023-04-03T06:01:51.925Z,4.19
2023-04-03T06:04:20.989Z,4.47
2023-04-03T06:06:56.268Z,4.45
2023-04-03T06:09:26.693Z,4.50
2023-04-03T06:11:54.849Z,4.60
2023-04-03T06:14:22.802Z,4.66
2023-04-03T06:16:50.633Z,4.62
2023-04-03T06:19:17.987Z,5.10
2023-04-03T06:21:45.687Z,6.21
2023-04-03T06:24:16.282Z,7.50
2023-04-03T06:26:44.043Z,9.48
2023-04-03T06:29:11.430Z,10.56
2023-04-03T06:31:39.188Z,11.62
2023-04-03T06:34:09.531Z,11.97
2023-04-03T06:36:37.224Z,11.73
2023-04-03T06:39:04.925Z,11.64
2023-04-03T06:41:32.419Z,12.03
2023-04-03T06:44:00.058Z,11.83
2023-04-03T06:46:28.101Z,12.55
2023-04-03T06:48:56.092Z,12.68
2023-04-03T06:51:28.939Z,11.18
2023-04-03T06:53:58.551Z,10.62
2023-04-03T06:56:27.397Z,10.02
2023-04-03T06:58:55.893Z,9.36
2023-04-03T07:01:23.780Z,8.96
2023-04-03T07:03:51.322Z,8.24
2023-04-03T07:06:19.314Z,7.84
2023-04-03T07:08:50.235Z,8.04
2023-04-03T07:11:17.690Z,8.03
2023-04-03T07:13:45.165Z,8.49
2023-04-03T07:16:12.948Z,8.45
2023-04-03T07:18:40.466Z,8.02
2023-04-03T07:21:07.715Z,7.85
2023-04-03T07:23:35.303Z,7.99
2023-04-03T07:26:03.149Z,8.30
2023-04-03T07:28:31.359Z,8.25
2023-04-03T07:31:09.470Z,7.92
2023-04-03T07:33:38.273Z,7.97
2023-04-03T07:36:08.034Z,8.15
2023-04-03T07:38:36.734Z,8.15
2023-04-03T07:41:04.832Z,8.41
2023-04-03T07:43:32.619Z,8.20
2023-04-03T07:45:59.995Z,8.34
2023-04-03T07:48:27.836Z,8.79
2023-04-03T07:50:56.711Z,8.90
2023-04-03T07:53:23.917Z,9.02
2023-04-03T07:55:56.480Z,9.07
2023-04-03T07:58:26.820Z,9.33
2023-04-03T08:00:54.141Z,9.50
2023-04-03T08:03:22.220Z,9.62
2023-04-03T08:05:50.390Z,9.64
2023-04-03T08:08:21.446Z,10.28
2023-04-03T08:10:51.399Z,10.44
2023-04-03T08:13:19.082Z,8.96
2023-04-03T08:15:46.394Z,8.72
2023-04-03T08:18:15.947Z,9.11
2023-04-03T08:20:46.054Z,8.79
2023-04-03T08:23:13.989Z,9.45
2023-04-03T08:25:42.688Z,9.17
2023-04-03T08:28:12.325Z,8.85
2023-04-03T08:30:42.069Z,9.07
2023-04-03T08:33:09.968Z,9.16
2023-04-03T08:35:42.528Z,8.98
2023-04-03T08:38:11.189Z,8.53
2023-04-03T08:40:42.406Z,8.84
2023-04-03T08:43:32.224Z,9.05
2023-04-03T08:46:01.021Z,9.08
2023-04-03T08:48:32.733Z,8.91
2023-04-03T08:51:03.621Z,9.69
2023-04-03T08:53:34.768Z,9.43
2023-04-03T08:56:09.382Z,9.61
2023-04-03T08:58:42.994Z,9.19
2023-04-03T09:01:19.572Z,9.79
2023-04-03T09:03:47.227Z,10.16
2023-04-03T09:06:21.703Z,10.16
2023-04-03T09:08:58.259Z,9.37
2023-04-03T09:11:54.635Z,10.11
2023-04-03T09:14:29.499Z,10.82
2023-04-03T09:16:59.094Z,9.61
2023-04-03T09:19:33.860Z,9.57
2023-04-03T09:22:15.469Z,10.03
2023-04-03T09:24:45.683Z,9.56
2023-04-03T09:27:13.275Z,9.27
2023-04-03T09:29:44.647Z,9.38
2023-04-03T09:32:27.581Z,10.20
2023-04-03T09:34:58.156Z,10.61
2023-04-03T09:37:45.470Z,11.14
2023-04-03T09:40:29.112Z,10.98
2023-04-03T09:43:01.558Z,11.36
2023-04-03T09:45:34.799Z,11.38
2023-04-03T09:48:17.145Z,10.95
2023-04-03T09:50:59.512Z,11.16
2023-04-03T09:53:46.298Z,11.79
2023-04-03T09:56:17.580Z,10.79
2023-04-03T09:59:05.405Z,11.06
2023-04-03T10:01:39.557Z,10.83
2023-04-03T10:04:15.886Z,12.56
2023-04-03T10:06:47.973Z,12.55
2023-04-03T10:12:46.994Z,11.64
2023-04-03T10:15:21.962Z,12.56
2023-04-03T10:18:08.769Z,13.27
2023-04-03T10:20:48.463Z,12.93
2023-04-03T10:23:38.066Z,13.57
2023-04-03T10:26:24.662Z,11.46
2023-04-03T10:29:22.971Z,11.33
2023-04-03T10:32:11.176Z,12.38
2023-04-03T10:34:42.347Z,13.05
2023-04-03T10:37:25.994Z,13.14
2023-04-03T10:39:59.445Z,12.55
2023-04-03T10:42:33.202Z,12.22
2023-04-03T10:45:42.153Z,11.34
2023-04-03T10:48:38.818Z,11.07
2023-04-03T10:51:33.551Z,9.94
2023-04-03T10:54:22.233Z,10.27
2023-04-03T10:57:04.587Z,9.78
2023-04-03T10:59:48.440Z,9.87
2023-04-03T11:02:40.986Z,10.03
2023-04-03T11:05:35.225Z,10.19
2023-04-03T11:08:32.359Z,10.15
2023-04-03T11:11:04.480Z,9.95
2023-04-03T11:13:37.366Z,10.11
2023-04-03T11:16:06.693Z,10.17
2023-04-03T11:18:40.075Z,10.18
2023-04-03T11:21:14.981Z,9.73
2023-04-03T11:23:49.383Z,9.90
2023-04-03T11:26:22.016Z,10.22
2023-04-03T11:29:03.331Z,10.23
2023-04-03T11:32:03.537Z,10.36
2023-04-03T11:34:48.961Z,10.09
2023-04-03T11:37:39.595Z,9.50
2023-04-03T11:40:26.706Z,9.73
2023-04-03T11:43:04.390Z,9.65
2023-04-03T11:45:47.475Z,9.76
2023-04-03T11:48:32.611Z,9.57
2023-04-03T11:51:00.826Z,9.63
2023-04-03T11:53:28.923Z,9.73
2023-04-03T11:56:01.894Z,9.61
2023-04-03T11:58:31.176Z,9.61
2023-04-03T12:01:01.498Z,9.82
2023-04-03T12:03:34.988Z,9.81
2023-04-03T12:06:05.719Z,9.79
2023-04-03T12:08:33.942Z,9.75
2023-04-03T12:11:10.777Z,9.86
2023-04-03T12:13:53.632Z,9.85
2023-04-03T12:16:22.960Z,9.86
2023-04-03T12:18:50.678Z,9.89
2023-04-03T12:21:25.776Z,9.94
2023-04-03T12:23:59.365Z,10.02
2023-04-03T12:26:49.126Z,9.84
2023-04-03T12:29:29.865Z,10.04
2023-04-03T12:32:01.207Z,9.53
2023-04-03T12:34:51.810Z,9.81
2023-04-03T12:37:59.497Z,9.54
2023-04-03T12:40:27.154Z,9.71
2023-04-03T12:43:11.663Z,9.71
2023-04-03T12:45:46.051Z,9.75
2023-04-03T12:48:19.206Z,9.80
2023-04-03T12:50:48.193Z,9.81
2023-04-03T12:53:21.290Z,9.67
2023-04-03T12:55:49.088Z,9.80
2023-04-03T12:58:25.125Z,9.86
2023-04-03T13:01:12.994Z,9.96
2023-04-03T13:03:42.398Z,10.00
2023-04-03T13:06:23.116Z,9.71
2023-04-03T13:08:59.313Z,9.99
2023-04-03T13:11:32.399Z,10.19
2023-04-03T13:17:04.226Z,10.48
2023-04-03T13:19:33.095Z,10.65
2023-04-03T13:22:26.867Z,10.83
2023-04-03T13:24:56.194Z,11.03
2023-04-03T13:27:23.797Z,10.54
2023-04-03T13:29:54.045Z,10.52
2023-04-03T13:32:24.651Z,10.55
2023-04-03T13:34:52.215Z,11.02
2023-04-03T13:37:25.629Z,11.28
2023-04-03T13:39:59.708Z,10.45
2023-04-03T13:42:30.824Z,10.48
2023-04-03T13:45:27.333Z,10.10
2023-04-03T13:48:23.233Z,10.63
2023-04-03T13:50:59.188Z,10.54
2023-04-03T13:53:27.997Z,9.89
2023-04-03T13:56:22.038Z,9.90
2023-04-03T13:59:07.949Z,9.75
2023-04-03T14:01:42.422Z,9.95
2023-04-03T14:04:31.481Z,10.12
2023-04-03T14:10:31.528Z,10.42
2023-04-03T14:12:59.244Z,9.93
2023-04-03T14:15:29.377Z,10.24
2023-04-03T14:17:56.755Z,9.93
2023-04-03T14:20:27.727Z,10.11
2023-04-03T14:22:55.384Z,10.29
2023-04-03T14:25:25.071Z,10.22
2023-04-03T14:27:54.757Z,10.14
2023-04-03T14:30:28.581Z,9.72
2023-04-03T14:32:56.834Z,9.87
2023-04-03T14:35:24.873Z,9.89
2023-04-03T14:37:53.489Z,9.72
2023-04-03T14:40:26.524Z,9.78
2023-04-03T14:42:56.466Z,9.81
2023-04-03T14:45:24.882Z,9.64
2023-04-03T14:47:54.609Z,9.27
2023-04-03T14:50:25.927Z,9.33
2023-04-03T14:52:57.594Z,9.10
2023-04-03T14:55:25.677Z,8.97
2023-04-03T14:57:54.251Z,8.89
2023-04-03T15:00:23.645Z,8.88
2023-04-03T15:02:51.752Z,8.76
2023-04-03T15:05:20.649Z,8.79
2023-04-03T15:07:51.705Z,8.80
2023-04-03T15:10:20.104Z,8.77
2023-04-03T15:12:49.642Z,8.76
2023-04-03T15:15:18.720Z,8.50
2023-04-03T15:17:46.624Z,8.46
2023-04-03T15:20:19.969Z,8.45
2023-04-03T15:22:47.627Z,8.36
2023-04-03T15:25:15.501Z,8.33
2023-04-03T15:27:42.922Z,8.37
2023-04-03T15:30:15.796Z,8.27
2023-04-03T15:32:43.647Z,8.16
2023-04-03T15:35:12.003Z,8.13
2023-04-03T15:37:39.365Z,8.11
2023-04-03T15:40:07.746Z,8.11
2023-04-03T15:42:35.180Z,8.02
2023-04-03T15:45:02.805Z,8.00
2023-04-03T15:47:30.430Z,7.99
2023-04-03T15:49:57.730Z,8.10
2023-04-03T15:52:25.424Z,8.04
2023-04-03T15:54:53.133Z,8.02
2023-04-03T15:57:20.924Z,7.94
2023-04-03T15:59:48.134Z,7.92
2023-04-03T16:02:15.907Z,7.84
2023-04-03T16:04:43.586Z,7.75
2023-04-03T16:07:10.853Z,7.59
2023-04-03T16:09:38.114Z,7.53
2023-04-03T16:12:05.593Z,7.53
2023-04-03T16:14:32.776Z,7.47
2023-04-03T16:17:01.065Z,7.47
2023-04-03T16:23:00.495Z,7.30
2023-04-03T16:25:28.593Z,7.24
2023-04-03T16:27:55.966Z,7.25
2023-04-03T16:30:23.380Z,7.21
2023-04-03T16:32:51.311Z,7.23
2023-04-03T16:38:49.902Z,7.16
2023-04-03T16:41:17.604Z,7.07
2023-04-03T16:43:45.087Z,7.05
2023-04-03T16:46:12.539Z,7.05
2023-04-03T16:48:40.536Z,7.04
2023-04-03T16:51:08.008Z,7.00
2023-04-03T16:53:35.632Z,6.99
2023-04-03T16:56:03.293Z,6.92
2023-04-03T16:58:30.646Z,6.93
2023-04-03T17:00:58.127Z,6.94
2023-04-03T17:03:29.012Z,6.90
2023-04-03T17:05:56.471Z,6.88
2023-04-03T17:08:24.280Z,6.86
2023-04-03T17:10:54.908Z,6.85
2023-04-03T17:13:22.478Z,6.84
2023-04-03T17:15:50.131Z,6.81
2023-04-03T17:18:18.119Z,6.84
2023-04-03T17:20:45.492Z,6.83
2023-04-03T17:23:12.917Z,6.86
2023-04-03T17:25:41.380Z,6.84
2023-04-03T17:28:09.543Z,6.84
2023-04-03T17:30:37.342Z,6.91
2023-04-03T17:33:05.235Z,6.98
2023-04-03T17:35:33.377Z,6.98
2023-04-03T17:38:02.513Z,6.95
2023-04-03T17:40:30.673Z,6.96
2023-04-03T17:42:58.605Z,6.93
2023-04-03T17:45:26.800Z,6.85
2023-04-03T17:47:55.180Z,6.76
2023-04-03T17:50:23.037Z,6.72
2023-04-03T17:52:51.146Z,6.71
2023-04-03T17:55:19.608Z,6.67
2023-04-03T17:57:47.358Z,6.73
2023-04-03T18:00:19.204Z,6.76
2023-04-03T18:02:54.121Z,6.67
2023-04-03T18:05:22.715Z,6.66
2023-04-03T18:07:51.774Z,6.66
2023-04-03T18:10:22.125Z,6.59
2023-04-03T18:12:54.942Z,6.52
2023-04-03T18:15:25.854Z,6.46
2023-04-03T18:17:58.217Z,6.47
2023-04-03T18:20:28.911Z,6.52
2023-04-03T18:22:56.992Z,6.49
2023-04-03T18:25:25.330Z,6.42
2023-04-03T18:27:56.256Z,6.59
2023-04-03T18:30:30.057Z,6.54
2023-04-03T18:33:03.430Z,6.40
2023-04-03T18:35:34.317Z,6.36
2023-04-03T18:38:03.291Z,6.22
2023-04-03T18:40:36.466Z,6.11
2023-04-03T18:43:13.456Z,6.08
2023-04-03T18:45:44.539Z,6.00
2023-04-03T18:48:17.530Z,6.04
2023-04-03T18:50:49.701Z,6.08
2023-04-03T18:53:21.336Z,6.07
2023-04-03T18:55:49.969Z,6.01
2023-04-03T18:58:18.758Z,5.95
2023-04-03T19:00:49.795Z,5.90
2023-04-03T19:03:18.450Z,5.75
2023-04-03T19:05:47.878Z,5.77
2023-04-03T19:08:17.862Z,5.62
2023-04-03T19:10:53.497Z,5.51
2023-04-03T19:13:30.745Z,5.50
2023-04-03T19:16:01.919Z,5.44
2023-04-03T19:18:31.335Z,5.43
2023-04-03T19:21:02.870Z,5.28
2023-04-03T19:23:34.840Z,5.23
2023-04-03T19:26:08.880Z,5.21
2023-04-03T19:28:38.789Z,5.19
2023-04-03T19:31:18.488Z,5.20
2023-04-03T19:33:48.508Z,5.07
2023-04-03T19:36:18.298Z,5.02
2023-04-03T19:38:49.621Z,4.98
2023-04-03T19:41:23.708Z,4.98
2023-04-03T19:43:53.633Z,4.93
2023-04-03T19:46:29.834Z,4.94
2023-04-03T19:48:58.501Z,4.85
2023-04-03T19:51:31.229Z,4.78
2023-04-03T19:53:59.651Z,4.68
2023-04-03T19:56:27.991Z,4.61
2023-04-03T19:59:01.433Z,4.58
2023-04-03T20:01:32.334Z,4.54
2023-04-03T20:04:01.111Z,4.50
2023-04-03T20:06:29.818Z,4.52
2023-04-03T20:08:58.625Z,4.49
2023-04-03T20:11:27.808Z,4.42
2023-04-03T20:13:58.025Z,4.41
2023-04-03T20:16:26.312Z,4.42
2023-04-03T20:18:57.682Z,4.39
2023-04-03T20:21:30.005Z,4.38
2023-04-03T20:24:00.050Z,4.26
2023-04-03T20:26:30.261Z,4.24
2023-04-03T20:29:00.287Z,4.21
2023-04-03T20:31:28.754Z,4.04
2023-04-03T20:33:57.002Z,4.04
2023-04-03T20:36:26.842Z,3.95
2023-04-03T20:38:54.568Z,4.02
2023-04-03T20:41:22.697Z,3.88
2023-04-03T20:43:51.001Z,3.85
2023-04-03T20:46:20.374Z,3.80
2023-04-03T20:48:48.243Z,3.71
2023-04-03T20:51:21.286Z,3.68
2023-04-03T20:53:48.978Z,3.60
2023-04-03T20:56:16.930Z,3.57
2023-04-03T20:58:46.312Z,3.44
2023-04-03T21:01:16.562Z,3.55
2023-04-03T21:03:46.239Z,3.47
2023-04-03T21:06:51.419Z,3.52
2023-04-03T21:09:57.325Z,3.46
2023-04-03T21:13:03.193Z,3.40
2023-04-03T21:15:55.405Z,3.35
2023-04-03T21:18:37.243Z,3.35
2023-04-03T21:21:05.024Z,3.30
2023-04-03T21:23:32.920Z,3.29
2023-04-03T21:26:01.234Z,3.33
2023-04-03T21:28:29.037Z,3.32
2023-04-03T21:30:56.385Z,3.26
2023-04-03T21:33:23.674Z,3.28
2023-04-03T21:35:57.730Z,3.37
2023-04-03T21:38:27.595Z,3.43
2023-04-03T21:40:58.362Z,3.38
2023-04-03T21:43:25.603Z,3.37
2023-04-03T21:45:56.660Z,3.37
2023-04-03T21:48:24.810Z,3.30
2023-04-03T21:50:55.156Z,3.31
2023-04-03T21:53:22.685Z,3.22
2023-04-03T21:55:54.501Z,3.15
2023-04-03T21:58:22.080Z,3.28
2023-04-03T22:00:49.566Z,3.31
2023-04-03T22:03:21.362Z,3.19
2023-04-03T22:05:48.676Z,3.18
2023-04-03T22:08:18.057Z,3.12
2023-04-03T22:10:46.037Z,3.23
2023-04-03T22:13:13.319Z,3.12
2023-04-03T22:15:43.735Z,3.10
2023-04-03T22:18:11.420Z,3.17
2023-04-03T22:20:39.601Z,3.07
2023-04-03T22:23:07.324Z,3.04
2023-04-03T22:25:34.830Z,3.09
2023-04-03T22:28:02.167Z,3.06
2023-04-03T22:30:29.619Z,3.17
2023-04-03T22:32:57.140Z,3.05
2023-04-03T22:35:24.639Z,3.04
2023-04-03T22:37:51.880Z,3.03
2023-04-03T22:40:19.555Z,3.09
2023-04-03T22:42:48.298Z,3.12
2023-04-03T22:45:16.505Z,2.99
2023-04-03T22:47:44.207Z,2.93
2023-04-03T22:50:11.432Z,3.06
2023-04-03T22:52:38.648Z,3.00
2023-04-03T22:55:18.661Z,2.96
2023-04-03T22:57:47.776Z,2.87
2023-04-03T23:00:16.615Z,2.96
2023-04-03T23:02:43.927Z,2.84
2023-04-03T23:05:11.185Z,2.84
2023-04-03T23:07:41.658Z,2.91
2023-04-03T23:10:09.484Z,2.77
2023-04-03T23:12:40.572Z,2.72
2023-04-03T23:15:08.693Z,2.83
2023-04-03T23:17:39.515Z,2.79
2023-04-03T23:20:07.074Z,2.65
2023-04-03T23:22:34.890Z,2.68
2023-04-03T23:25:02.771Z,2.61
2023-04-03T23:27:29.953Z,2.56
2023-04-03T23:29:57.702Z,2.54
2023-04-03T23:32:25.098Z,2.37
2023-04-03T23:34:52.309Z,2.31
2023-04-03T23:37:20.029Z,2.27
2023-04-03T23:39:47.251Z,2.25
2023-04-03T23:42:14.521Z,2.18
2023-04-03T23:44:42.022Z,2.17
2023-04-03T23:47:09.193Z,2.06
2023-04-03T23:49:36.432Z,1.97
2023-04-03T23:52:03.933Z,1.93
2023-04-03T23:54:31.578Z,1.91
2023-04-03T23:57:00.972Z,1.82
2023-04-03T23:59:30.834Z,1.80
